createdAt,value
2022-09-01T00:02:59.921Z,102464.97
2022-09-01T00:08:01.926Z,102469.41
2022-09-01T00:13:06.942Z,102474.72
2022-09-01T00:18:09.085Z,102465.16
2022-09-01T00:23:10.677Z,102454.78
2022-09-01T00:28:12.297Z,102447.84
2022-09-01T00:33:14.056Z,102453.13
2022-09-01T00:38:16.305Z,102448.81
2022-09-01T00:43:22.629Z,102459.31
2022-09-01T00:48:25.056Z,102455.88
2022-09-01T00:53:26.860Z,102449.75
2022-09-01T00:58:29.915Z,102433.19
2022-09-01T01:03:31.555Z,102447.16
2022-09-01T01:08:36.844Z,102437.63
2022-09-01T01:14:12.291Z,102435.00
2022-09-01T01:19:44.076Z,102437.66
2022-09-01T01:24:47.964Z,102432.47
2022-09-01T01:29:51.891Z,102422.91
2022-09-01T01:34:53.854Z,102422.94
2022-09-01T01:39:55.443Z,102409.88
2022-09-01T01:44:57.367Z,102426.44
2022-09-01T01:49:58.940Z,102427.34
2022-09-01T01:55:05.012Z,102421.28
2022-09-01T02:00:08.292Z,102433.50
2022-09-01T02:05:12.933Z,102421.34
2022-09-01T02:10:15.012Z,102424.81
2022-09-01T02:15:16.739Z,102433.47
2022-09-01T02:20:18.534Z,102431.72
2022-09-01T02:25:20.717Z,102438.72
2022-09-01T02:30:26.491Z,102437.91
2022-09-01T02:35:37.966Z,102423.97
2022-09-01T02:40:46.880Z,102429.16
2022-09-01T02:45:55.510Z,102426.56
2022-09-01T02:51:01.929Z,102421.34
2022-09-01T02:56:09.439Z,102415.28
2022-09-01T03:01:24.781Z,102410.97
2022-09-01T03:06:34.195Z,102405.75
2022-09-01T03:11:42.757Z,102421.38
2022-09-01T03:16:45.018Z,102424.84
2022-09-01T03:21:47.374Z,102418.75
2022-09-01T03:26:50.855Z,102416.97
2022-09-01T03:31:52.561Z,102420.47
2022-09-01T03:36:54.343Z,102417.88
2022-09-01T03:41:56.388Z,102427.44
2022-09-01T03:46:58.460Z,102423.09
2022-09-01T03:52:00.266Z,102429.19
2022-09-01T03:57:02.033Z,102432.63
2022-09-01T04:02:03.931Z,102427.41
2022-09-01T04:07:05.606Z,102428.25
2022-09-01T04:12:09.002Z,102428.25
2022-09-01T04:17:30.663Z,102429.97
2022-09-01T04:22:35.258Z,102432.59
2022-09-01T04:27:39.104Z,102431.72
2022-09-01T04:32:41.634Z,102441.31
2022-09-01T04:37:43.607Z,102437.81
2022-09-01T04:42:45.198Z,102434.31
2022-09-01T04:47:47.814Z,102431.69
2022-09-01T04:52:51.157Z,102435.19
2022-09-01T04:57:53.177Z,102428.19
2022-09-01T05:03:03.124Z,102430.75
2022-09-01T05:08:06.479Z,102431.56
2022-09-01T05:13:10.362Z,102425.47
2022-09-01T05:18:23.353Z,102434.97
2022-09-01T05:23:26.465Z,102431.41
2022-09-01T05:28:29.127Z,102422.66
2022-09-01T05:33:30.713Z,102433.03
2022-09-01T05:38:33.980Z,102440.84
2022-09-01T05:43:36.914Z,102438.97
2022-09-01T05:48:40.119Z,102434.47
2022-09-01T05:53:43.869Z,102437.75
2022-09-01T06:04:10.532Z,102443.28
2022-09-01T06:09:17.978Z,102436.81
2022-09-01T06:14:20.515Z,102434.56
2022-09-01T06:19:22.148Z,102450.34
2022-09-01T06:24:23.884Z,102441.22
2022-09-01T06:29:25.752Z,102433.44
2022-09-01T06:34:28.447Z,102434.78
2022-09-01T06:39:31.739Z,102435.69
2022-09-01T06:44:33.804Z,102438.31
2022-09-01T06:49:36.728Z,102444.44
2022-09-01T06:54:39.638Z,102449.31
2022-09-01T06:59:41.287Z,102452.78
2022-09-01T07:04:46.011Z,102450.28
2022-09-01T07:10:05.887Z,102442.97
2022-09-01T07:21:02.717Z,102448.56
2022-09-01T07:26:06.912Z,102451.38
2022-09-01T07:36:33.163Z,102453.53
2022-09-01T07:47:20.086Z,102454.81
2022-09-01T07:52:22.646Z,102441.63
2022-09-01T07:57:24.470Z,102441.88
2022-09-01T08:02:27.979Z,102457.47
2022-09-01T08:07:29.814Z,102458.97
2022-09-01T08:12:31.723Z,102453.84
2022-09-01T08:17:50.286Z,102451.19
2022-09-01T08:22:53.165Z,102458.81
2022-09-01T08:28:02.160Z,102469.94
2022-09-01T08:33:11.214Z,102466.78
2022-09-01T08:38:12.885Z,102465.34
2022-09-01T08:43:24.952Z,102472.53
2022-09-01T08:54:27.683Z,102481.09
2022-09-01T08:59:31.802Z,102483.88
2022-09-01T09:04:35.995Z,102472.75
2022-09-01T09:09:54.024Z,102480.78
2022-09-01T09:15:08.122Z,102473.31
2022-09-01T09:20:10.524Z,102465.94
2022-09-01T09:25:17.523Z,102461.13
2022-09-01T09:30:27.380Z,102467.53
2022-09-01T09:35:33.379Z,102462.53
2022-09-01T09:40:53.318Z,102467.41
2022-09-01T09:46:25.322Z,102456.28
2022-09-01T09:51:28.918Z,102455.44
2022-09-01T09:56:31.145Z,102448.84
2022-09-01T10:01:34.718Z,102444.84
2022-09-01T10:06:41.092Z,102434.28
2022-09-01T10:11:48.249Z,102441.00
2022-09-01T10:16:56.126Z,102438.28
2022-09-01T10:21:57.740Z,102446.88
2022-09-01T10:27:14.272Z,102434.28
2022-09-01T10:32:34.969Z,102443.25
2022-09-01T10:37:41.334Z,102437.06
2022-09-01T10:42:46.519Z,102434.19
2022-09-01T10:47:48.548Z,102427.13
2022-09-01T10:52:51.355Z,102419.88
2022-09-01T11:03:51.869Z,102411.38
2022-09-01T11:09:02.987Z,102408.06
2022-09-01T11:14:21.976Z,102403.75
2022-09-01T11:19:23.653Z,102412.03
2022-09-01T11:25:12.511Z,102405.22
2022-09-01T11:30:21.376Z,102405.47
2022-09-01T11:35:26.628Z,102411.59
2022-09-01T11:40:32.660Z,102400.50
2022-09-01T11:45:43.262Z,102400.53
2022-09-01T11:50:44.902Z,102395.81
2022-09-01T11:55:50.033Z,102404.50
2022-09-01T12:00:51.599Z,102384.97
2022-09-01T12:06:01.206Z,102388.25
2022-09-01T12:11:08.921Z,102384.75
2022-09-01T12:16:18.478Z,102388.91
2022-09-01T12:21:43.877Z,102389.25
2022-09-01T12:26:54.197Z,102381.13
2022-09-01T12:31:56.167Z,102369.22
2022-09-01T12:37:29.546Z,102374.97
2022-09-01T12:42:40.766Z,102382.34
2022-09-01T12:47:50.299Z,102377.34
2022-09-01T12:53:00.186Z,102375.88
2022-09-01T12:58:05.618Z,102381.84
2022-09-01T13:03:17.896Z,102381.59
2022-09-01T13:08:26.904Z,102369.66
2022-09-01T13:13:29.303Z,102360.19
2022-09-01T13:18:31.004Z,102363.03
2022-09-01T13:23:32.947Z,102359.16
2022-09-01T13:28:36.434Z,102354.34
2022-09-01T13:39:02.031Z,102365.81
2022-09-01T13:44:03.672Z,102367.00
2022-09-01T13:49:42.073Z,102368.41
2022-09-01T13:54:26.818Z,102366.72
2022-09-01T13:59:29.975Z,102367.88
2022-09-01T14:04:31.743Z,102353.34
2022-09-01T14:09:34.354Z,102365.09
2022-09-01T14:19:57.542Z,102351.88
2022-09-01T14:24:59.290Z,102347.22
2022-09-01T14:30:00.996Z,102355.53
2022-09-01T14:35:03.454Z,102342.47
2022-09-01T14:40:06.486Z,102346.56
2022-09-01T14:45:12.054Z,102335.88
2022-09-01T14:50:15.979Z,102333.91
2022-09-01T14:55:22.716Z,102319.72
2022-09-01T15:00:27.756Z,102321.47
2022-09-01T15:05:29.483Z,102326.91
2022-09-01T15:10:41.058Z,102325.81
2022-09-01T15:15:42.686Z,102308.50
2022-09-01T15:20:47.321Z,102310.94
2022-09-01T15:25:53.299Z,102299.13
2022-09-01T15:30:56.970Z,102287.16
2022-09-01T15:35:58.536Z,102296.75
2022-09-01T15:41:01.643Z,102292.94
2022-09-01T15:46:04.690Z,102291.28
2022-09-01T15:51:24.404Z,102292.22
2022-09-01T15:56:26.277Z,102289.16
2022-09-01T16:01:29.597Z,102280.53
2022-09-01T16:06:31.230Z,102272.59
2022-09-01T16:11:33.008Z,102269.31
2022-09-01T16:16:41.263Z,102273.06
2022-09-01T16:22:05.884Z,102264.25
2022-09-01T16:27:10.458Z,102259.69
2022-09-01T16:32:13.225Z,102262.09
2022-09-01T16:37:36.035Z,102254.34
2022-09-01T16:42:47.014Z,102251.22
2022-09-01T16:47:57.813Z,102245.75
2022-09-01T16:53:17.674Z,102242.72
2022-09-01T16:58:51.940Z,102240.75
2022-09-01T17:04:20.158Z,102233.72
2022-09-01T17:09:33.259Z,102248.91
2022-09-01T17:14:40.932Z,102244.91
2022-09-01T17:19:42.463Z,102248.84
2022-09-01T17:24:48.909Z,102247.84
2022-09-01T17:29:53.256Z,102261.66
2022-09-01T17:35:15.109Z,102254.88
2022-09-01T17:40:25.718Z,102257.53
2022-09-01T17:45:45.614Z,102256.88
2022-09-01T17:51:24.608Z,102259.44
2022-09-01T17:56:45.172Z,102262.13
2022-09-01T18:02:20.921Z,102264.00
2022-09-01T18:07:40.808Z,102259.09
2022-09-01T18:12:44.177Z,102259.66
2022-09-01T18:17:50.711Z,102254.63
2022-09-01T18:23:01.948Z,102258.72
2022-09-01T18:28:03.744Z,102251.97
2022-09-01T18:33:18.856Z,102274.50
2022-09-01T18:38:42.228Z,102276.72
2022-09-01T18:43:51.152Z,102273.84
2022-09-01T18:48:59.853Z,102274.09
2022-09-01T18:54:27.192Z,102287.78
2022-09-01T18:59:36.893Z,102289.63
2022-09-01T19:04:45.902Z,102288.16
2022-09-01T19:09:58.434Z,102284.50
2022-09-01T19:15:15.213Z,102287.28
2022-09-01T19:20:23.404Z,102285.91
2022-09-01T19:25:38.097Z,102283.41
2022-09-01T19:30:50.134Z,102285.53
2022-09-01T19:35:57.411Z,102287.72
2022-09-01T19:41:10.709Z,102286.44
2022-09-01T19:46:28.574Z,102292.16
2022-09-01T19:51:38.152Z,102288.16
2022-09-01T19:56:56.685Z,102298.91
2022-09-01T20:02:09.280Z,102287.16
2022-09-01T20:07:31.404Z,102289.13
2022-09-01T20:12:47.935Z,102292.81
2022-09-01T20:17:52.350Z,102289.59
2022-09-01T20:23:08.134Z,102293.47
2022-09-01T20:28:44.354Z,102291.91
2022-09-01T20:34:01.726Z,102293.09
2022-09-01T20:39:40.781Z,102298.53
2022-09-01T20:44:57.488Z,102299.66
2022-09-01T20:50:00.667Z,102293.63
2022-09-01T20:55:23.468Z,102288.59
2022-09-01T21:00:28.018Z,102298.44
2022-09-01T21:05:41.590Z,102299.50
2022-09-01T21:10:59.165Z,102297.94
2022-09-01T21:16:18.690Z,102285.94
2022-09-01T21:21:45.269Z,102289.47
2022-09-01T21:26:48.984Z,102281.75
2022-09-01T21:31:50.942Z,102287.16
2022-09-01T21:36:55.390Z,102291.78
2022-09-01T21:41:57.364Z,102285.13
2022-09-01T21:46:59.348Z,102290.53
2022-09-01T21:52:00.873Z,102286.38
2022-09-01T21:57:02.822Z,102296.00
2022-09-01T22:02:07.086Z,102286.53
2022-09-01T22:07:15.207Z,102288.38
2022-09-01T22:12:16.947Z,102285.97
2022-09-01T22:17:18.744Z,102284.38
2022-09-01T22:22:20.271Z,102283.63
2022-09-01T22:27:21.770Z,102288.94
2022-09-01T22:32:23.981Z,102282.00
2022-09-01T22:37:25.574Z,102279.44
2022-09-01T22:42:27.277Z,102275.06
2022-09-01T22:47:29.015Z,102271.56
2022-09-01T22:52:30.634Z,102272.50
2022-09-01T22:57:32.704Z,102275.13
2022-09-01T23:02:34.857Z,102268.22
2022-09-01T23:07:39.755Z,102265.59
2022-09-01T23:12:41.799Z,102267.47
2022-09-01T23:17:43.613Z,102265.72
2022-09-01T23:22:46.010Z,102268.34
2022-09-01T23:27:47.561Z,102257.84
2022-09-01T23:32:49.102Z,102252.69
2022-09-01T23:37:50.629Z,102256.09
2022-09-01T23:42:52.192Z,102248.38
2022-09-01T23:47:53.724Z,102245.75
2022-09-01T23:52:56.059Z,102242.25
2022-09-01T23:57:57.576Z,102237.97
